Time;durP1;ratioP1;P1;durP2;ratioP2;P2;SDS_P1;SDS_P2;PMS_P1;PMS_P2;Temp;Humidity;BMP_temperature;BMP_pressure;BME280_temperature;BME280_humidity;BME280_pressure;Samples;Min_cycle;Max_cycle;Signal;HPM_P1;HPM_P2
2022/04/27 00:02:02;;;;;;;9.63;6.25;;;;;;;14.30;81.95;100082.09;5118199;27;20100;-70
2022/04/27 00:04:30;;;;;;;9.82;6.43;;;;;;;14.47;80.40;100079.91;5117770;27;20111;-70
2022/04/27 00:06:59;;;;;;;10.10;6.85;;;;;;;14.43;81.01;100075.75;5136339;27;20039;-69
2022/04/27 00:09:28;;;;;;;11.20;6.60;;;;;;;14.38;79.14;100072.56;5135777;27;20472;-70
2022/04/27 00:12:00;;;;;;;8.15;5.82;;;;;;;14.30;77.57;100076.72;5136484;27;20043;-72
2022/04/27 00:14:30;;;;;;;9.05;5.57;;;;;;;14.24;75.36;100069.13;5135863;27;20059;-73
2022/04/27 00:16:59;;;;;;;10.13;5.40;;;;;;;14.43;71.55;100067.69;5135966;27;20039;-73
2022/04/27 00:19:28;;;;;;;7.78;5.10;;;;;;;14.21;70.23;100079.28;5117424;27;20047;-73
2022/04/27 00:21:56;;;;;;;6.97;4.65;;;;;;;14.17;70.56;100075.94;5117834;27;20403;-73
2022/04/27 00:24:27;;;;;;;7.40;4.93;;;;;;;14.31;70.19;100082.94;5117306;27;20448;-72
2022/04/27 00:26:55;;;;;;;8.70;5.07;;;;;;;14.23;71.07;100072.81;5136042;27;20533;-73
2022/04/27 00:29:25;;;;;;;7.63;5.13;;;;;;;14.18;72.09;100076.81;5135578;27;20131;-73
2022/04/27 00:31:53;;;;;;;7.78;5.22;;;;;;;14.12;72.55;100077.31;5135769;27;20057;-72
2022/04/27 00:34:22;;;;;;;9.60;5.43;;;;;;;14.15;73.74;100071.69;5135746;27;20132;-73
2022/04/27 00:36:50;;;;;;;9.00;5.10;;;;;;;14.08;72.72;100071.28;5135583;27;20043;-73
2022/04/27 00:39:18;;;;;;;8.60;5.30;;;;;;;14.10;72.56;100072.06;5136124;27;20124;-73
2022/04/27 00:41:59;;;;;;;7.82;5.10;;;;;;;14.04;72.69;100076.06;5135534;27;20067;-72
2022/04/27 00:44:30;;;;;;;7.65;5.00;;;;;;;14.20;73.63;100081.09;5135859;27;20039;-71
2022/04/27 00:47:00;;;;;;;7.18;5.25;;;;;;;14.09;74.60;100075.72;5135470;27;20046;-72
2022/04/27 00:49:29;;;;;;;8.88;5.40;;;;;;;13.95;75.56;100076.75;5116858;27;20134;-71
2022/04/27 00:51:57;;;;;;;8.48;4.60;;;;;;;14.12;68.30;100078.16;5117183;27;20051;-71
2022/04/27 00:54:26;;;;;;;8.35;4.70;;;;;;;14.11;69.85;100081.81;5116833;27;20068;-71
2022/04/27 00:56:54;;;;;;;7.38;4.68;;;;;;;14.07;72.78;100087.50;5135143;27;20043;-72
2022/04/27 00:59:23;;;;;;;9.18;5.40;;;;;;;14.08;78.31;100103.47;5116788;27;20515;-72
2022/04/27 01:01:52;;;;;;;7.43;5.05;;;;;;;14.13;76.06;100108.50;5134920;27;20039;-71
2022/04/27 01:04:20;;;;;;;7.50;5.22;;;;;;;14.02;74.65;100104.81;5135235;27;20043;-71
2022/04/27 01:06:49;;;;;;;8.88;4.93;;;;;;;14.03;71.81;100106.53;5135432;27;20547;-72
2022/04/27 01:09:19;;;;;;;6.55;4.57;;;;;;;13.98;72.73;100118.56;5116642;27;20047;-71
2022/04/27 01:11:47;;;;;;;7.35;4.60;;;;;;;13.89;73.20;100113.91;5116466;27;20075;-72
2022/04/27 01:14:16;;;;;;;7.85;4.55;;;;;;;13.87;73.42;100113.19;5116451;27;20419;-72
2022/04/27 01:16:50;;;;;;;10.85;5.43;;;;;;;13.90;75.02;100124.53;5134575;27;20039;-72
2022/04/27 01:19:21;;;;;;;9.05;4.78;;;;;;;13.88;74.77;100122.94;5134721;27;20047;-72
2022/04/27 01:21:52;;;;;;;7.80;4.78;;;;;;;13.87;75.19;100119.38;5134509;27;20035;-71
2022/04/27 01:24:24;;;;;;;6.47;4.78;;;;;;;13.91;74.23;100117.34;5134663;27;20468;-71
2022/04/27 01:26:53;;;;;;;7.80;5.00;;;;;;;13.97;73.13;100122.22;5116122;27;20493;-70
2022/04/27 01:29:23;;;;;;;7.60;5.05;;;;;;;13.98;70.73;100122.09;5134764;27;20043;-72
2022/04/27 01:31:52;;;;;;;7.07;5.00;;;;;;;14.01;70.24;100135.31;5134451;27;20473;-72
2022/04/27 01:34:21;;;;;;;8.75;5.47;;;;;;;14.02;69.44;100131.66;5134476;27;20035;-72
2022/04/27 01:36:50;;;;;;;8.82;5.28;;;;;;;14.10;70.28;100133.75;5134217;27;20118;-72
2022/04/27 01:39:22;;;;;;;6.55;4.72;;;;;;;14.08;71.64;100141.03;5134655;27;20040;-72
2022/04/27 01:41:51;;;;;;;8.00;4.80;;;;;;;14.07;70.83;100133.09;5134135;27;20039;-72
2022/04/27 01:44:19;;;;;;;9.82;4.88;;;;;;;13.97;71.33;100138.31;5116010;27;20510;-70
2022/04/27 01:46:47;;;;;;;6.53;4.57;;;;;;;13.86;73.84;100138.28;5115519;27;20047;-70
2022/04/27 01:49:15;;;;;;;8.68;4.97;;;;;;;13.85;73.57;100147.28;5134235;27;20043;-70
2022/04/27 01:54:33;;;;;;;7.70;4.82;;;;;;;13.57;77.58;100154.72;5134246;27;20488;-70
2022/04/27 01:57:02;;;;;;;8.82;5.18;;;;;;;13.47;78.30;100151.00;5134512;27;20043;-70
2022/04/27 01:59:30;;;;;;;6.90;5.03;;;;;;;13.42;79.16;100154.03;5134151;27;20043;-70
2022/04/27 02:01:59;;;;;;;7.32;4.95;;;;;;;13.46;79.90;100155.50;5134153;27;20031;-70
2022/04/27 02:04:27;;;;;;;10.15;5.43;;;;;;;13.26;81.52;100153.44;5134031;27;20045;-70
2022/04/27 02:06:55;;;;;;;7.90;5.30;;;;;;;13.22;84.35;100167.16;5134153;28;20035;-70
2022/04/27 02:09:23;;;;;;;9.88;5.68;;;;;;;13.21;86.14;100160.09;5134508;28;20047;-70
2022/04/27 02:11:53;;;;;;;9.57;5.88;;;;;;;13.18;89.00;100153.97;5133817;28;20036;-70
2022/04/27 02:14:21;;;;;;;9.20;5.90;;;;;;;13.14;94.22;100165.88;5134023;27;20051;-71
2022/04/27 02:16:50;;;;;;;8.98;6.00;;;;;;;13.06;96.21;100162.88;5133915;28;20042;-71
2022/04/27 02:19:21;;;;;;;11.35;6.05;;;;;;;13.05;98.22;100155.81;5134202;27;20047;-71
2022/04/27 02:21:50;;;;;;;10.00;5.80;;;;;;;12.86;100.00;100155.44;5136962;27;20118;-71
2022/04/27 02:24:18;;;;;;;8.88;6.20;;;;;;;12.74;100.00;100153.59;5138283;27;20122;-72
2022/04/27 02:26:46;;;;;;;12.50;6.97;;;;;;;12.81;100.00;100152.19;5137973;27;20047;-71
2022/04/27 02:29:16;;;;;;;9.80;5.95;;;;;;;12.82;100.00;100148.56;5137942;27;20053;-71
2022/04/27 02:31:44;;;;;;;12.98;6.50;;;;;;;12.59;100.00;100145.69;5119828;27;20062;-71
2022/04/27 02:34:12;;;;;;;9.10;6.53;;;;;;;12.50;100.00;100138.31;5119753;27;20074;-71
2022/04/27 02:36:40;;;;;;;11.48;6.82;;;;;;;12.47;100.00;100135.00;5137852;27;20043;-71
2022/04/27 02:39:09;;;;;;;10.32;6.60;;;;;;;12.57;100.00;100144.94;5137788;27;20045;-70
2022/04/27 02:41:41;;;;;;;11.18;7.22;;;;;;;12.45;100.00;100132.44;5137613;27;20472;-71
2022/04/27 02:44:09;;;;;;;10.52;7.05;;;;;;;12.47;100.00;100138.53;5138030;27;20535;-71
2022/04/27 02:46:38;;;;;;;11.60;7.53;;;;;;;12.59;100.00;100126.97;5137576;27;20126;-72
2022/04/27 02:51:52;;;;;;;10.95;7.07;;;;;;;12.57;100.00;100138.75;5137642;27;20480;-71
2022/04/27 02:54:21;;;;;;;9.88;7.10;;;;;;;12.37;100.00;100133.94;5119412;27;20047;-71
2022/04/27 02:56:51;;;;;;;13.77;7.80;;;;;;;12.36;100.00;100146.44;5118962;27;20047;-70
2022/04/27 02:59:21;;;;;;;12.65;7.28;;;;;;;12.37;100.00;100147.31;5137331;27;20404;-70
2022/04/27 03:01:51;;;;;;;10.73;7.47;;;;;;;12.23;100.00;100151.78;5119060;27;20501;-71
2022/04/27 03:04:19;;;;;;;13.65;7.82;;;;;;;12.26;100.00;100148.06;5119113;27;20043;-72
2022/04/27 03:06:48;;;;;;;13.00;8.15;;;;;;;12.30;100.00;100146.88;5137143;27;20042;-72
2022/04/27 03:09:16;;;;;;;12.65;8.07;;;;;;;12.31;100.00;100148.56;5137753;27;20035;-71
2022/04/27 03:11:44;;;;;;;13.38;8.85;;;;;;;12.12;100.00;100148.97;5137300;27;20039;-72
2022/04/27 03:14:12;;;;;;;13.63;7.65;;;;;;;12.16;100.00;100152.28;5118828;27;20066;-72
2022/04/27 03:16:40;;;;;;;12.77;8.15;;;;;;;12.18;100.00;100150.38;5137220;27;20078;-72
2022/04/27 03:19:10;;;;;;;13.20;8.32;;;;;;;12.18;100.00;100159.28;5137074;27;20041;-72
2022/04/27 03:21:38;;;;;;;12.50;7.70;;;;;;;12.33;100.00;100146.66;5118663;27;20047;-75
2022/04/27 03:24:07;;;;;;;11.10;7.53;;;;;;;12.38;100.00;100149.88;5118656;27;20055;-71
2022/04/27 03:26:35;;;;;;;12.38;7.82;;;;;;;12.38;100.00;100139.16;5137100;27;20100;-71
2022/04/27 03:29:04;;;;;;;13.82;8.60;;;;;;;12.05;100.00;100153.03;5136983;27;20039;-71
2022/04/27 03:31:32;;;;;;;13.02;8.55;;;;;;;12.02;100.00;100156.75;5136289;27;20050;-71
2022/04/27 03:34:00;;;;;;;11.65;8.32;;;;;;;11.99;100.00;100154.31;5136553;27;20082;-71
2022/04/27 03:36:31;;;;;;;15.95;9.00;;;;;;;12.01;100.00;100155.06;5137119;27;20039;-71
2022/04/27 03:38:59;;;;;;;13.18;7.88;;;;;;;12.15;100.00;100153.25;5118224;27;20653;-71
2022/04/27 03:41:28;;;;;;;11.07;7.50;;;;;;;12.17;100.00;100152.22;5136782;27;20039;-71
2022/04/27 03:43:56;;;;;;;11.73;7.85;;;;;;;12.12;100.00;100161.50;5136346;27;20047;-71
2022/04/27 03:46:24;;;;;;;12.07;7.60;;;;;;;12.09;100.00;100164.38;5118279;27;20424;-71
2022/04/27 03:49:12;;;;;;;15.60;8.48;;;;;;;12.17;100.00;100164.72;5136700;27;20092;-70
2022/04/27 03:51:42;;;;;;;11.95;7.63;;;;;;;12.19;100.00;100171.69;5117952;27;20516;-72
2022/04/27 03:54:10;;;;;;;11.55;7.47;;;;;;;12.16;100.00;100168.34;5117940;27;20134;-71
2022/04/27 03:56:38;;;;;;;14.38;9.18;;;;;;;12.14;100.00;100173.78;5136483;27;20043;-70
2022/04/27 03:59:06;;;;;;;11.45;7.82;;;;;;;12.09;100.00;100169.72;5136511;27;20039;-70
2022/04/27 04:01:35;;;;;;;12.27;7.82;;;;;;;11.83;100.00;100169.66;5136673;27;20108;-71
2022/04/27 04:04:03;;;;;;;12.68;7.95;;;;;;;12.02;100.00;100178.16;5136139;27;20077;-70
2022/04/27 04:06:32;;;;;;;14.13;8.50;;;;;;;12.22;100.00;100173.28;5118112;27;20408;-69
2022/04/27 04:09:03;;;;;;;11.70;7.93;;;;;;;12.09;100.00;100183.94;5117556;27;20055;-70
2022/04/27 04:11:31;;;;;;;12.48;8.13;;;;;;;11.90;100.00;100178.13;5135994;27;20046;-72
2022/04/27 04:13:59;;;;;;;11.77;7.82;;;;;;;11.94;100.00;100180.47;5117344;27;20461;-71
2022/04/27 04:16:27;;;;;;;11.70;7.85;;;;;;;12.07;100.00;100182.34;5117972;27;20054;-71
2022/04/27 04:18:56;;;;;;;10.48;6.82;;;;;;;11.91;100.00;100183.38;5135624;27;20055;-72
2022/04/27 04:21:26;;;;;;;12.10;8.05;;;;;;;11.97;100.00;100182.97;5135802;27;20097;-71
2022/04/27 04:23:54;;;;;;;11.30;7.90;;;;;;;12.04;100.00;100186.91;5135621;27;20385;-71
2022/04/27 04:29:10;;;;;;;11.48;7.75;;;;;;;12.17;100.00;100191.47;5136073;27;20159;-71
2022/04/27 04:31:38;;;;;;;15.43;7.85;;;;;;;12.06;100.00;100188.63;5115473;27;20061;-71
2022/04/27 04:34:09;;;;;;;12.68;7.90;;;;;;;12.10;100.00;100198.19;5117290;27;20077;-72
2022/04/27 04:36:37;;;;;;;13.05;8.32;;;;;;;12.00;100.00;100192.59;5135881;27;20448;-71
2022/04/27 04:39:05;;;;;;;11.05;7.63;;;;;;;11.95;100.00;100200.91;5124700;27;20074;-72
2022/04/27 04:41:35;;;;;;;12.00;8.02;;;;;;;11.86;100.00;100204.19;5108885;27;20509;-72
2022/04/27 04:44:03;;;;;;;12.38;8.65;;;;;;;11.90;100.00;100208.38;5129732;27;20036;-72
2022/04/27 04:46:31;;;;;;;12.48;7.55;;;;;;;11.91;100.00;100218.13;5133499;27;20491;-72
2022/04/27 04:49:00;;;;;;;12.90;8.25;;;;;;;11.93;100.00;100223.34;5116609;27;20043;-70
2022/04/27 04:51:28;;;;;;;11.90;8.05;;;;;;;11.93;100.00;100226.88;5117157;27;20510;-71
2022/04/27 04:54:04;;;;;;;12.40;8.30;;;;;;;12.00;100.00;100232.69;5135047;27;20039;-70
2022/04/27 04:56:32;;;;;;;12.88;8.63;;;;;;;12.07;100.00;100230.47;5135012;27;20078;-70
2022/04/27 04:59:02;;;;;;;12.32;8.07;;;;;;;12.18;100.00;100231.47;5135073;27;20077;-71
2022/04/27 05:01:30;;;;;;;15.10;8.27;;;;;;;12.24;100.00;100232.84;5134983;27;20043;-71
2022/04/27 05:03:58;;;;;;;13.35;7.63;;;;;;;12.28;100.00;100229.03;5116610;27;20062;-71
2022/04/27 05:06:33;;;;;;;12.88;7.60;;;;;;;12.36;100.00;100236.53;5135344;27;20050;-73
2022/04/27 05:09:01;;;;;;;11.30;8.30;;;;;;;12.44;99.04;100242.19;5134703;27;20095;-72
2022/04/27 05:11:29;;;;;;;14.70;8.25;;;;;;;12.59;96.93;100239.34;5116335;27;20432;-74
2022/04/27 05:13:58;;;;;;;13.65;8.15;;;;;;;12.64;92.56;100244.38;5116051;27;20419;-70
2022/04/27 05:16:27;;;;;;;14.18;8.45;;;;;;;12.66;92.77;100233.59;5135166;27;20070;-70
2022/04/27 05:18:56;;;;;;;13.50;7.53;;;;;;;12.67;93.76;100248.66;5116032;27;20047;-71
2022/04/27 05:21:24;;;;;;;13.15;8.00;;;;;;;12.85;89.64;100244.72;5135300;27;20075;-70
2022/04/27 05:23:52;;;;;;;13.32;8.50;;;;;;;12.85;90.58;100244.72;5135585;27;20049;-70
2022/04/27 05:26:21;;;;;;;14.23;9.05;;;;;;;13.08;86.44;100241.28;5117807;27;20051;-71
2022/04/27 05:31:57;;;;;;;14.25;8.43;;;;;;;13.49;83.35;100245.53;5090715;27;20051;-71
2022/04/27 05:34:30;;;;;;;13.93;8.63;;;;;;;13.62;83.75;100245.50;5116358;27;20043;-71
2022/04/27 05:36:59;;;;;;;15.07;7.75;;;;;;;14.67;74.77;100242.97;5116263;27;20130;-71
2022/04/27 05:39:27;;;;;;;14.15;7.82;;;;;;;15.18;72.31;100239.84;5135183;27;20464;-70
2022/04/27 05:41:55;;;;;;;16.65;8.98;;;;;;;15.71;68.67;100243.59;5134376;27;20047;-73
2022/04/27 05:44:25;;;;;;;11.05;7.70;;;;;;;15.28;68.76;100251.59;5116089;27;20043;-72
2022/04/27 05:46:56;;;;;;;11.70;7.82;;;;;;;14.53;70.33;100259.28;5115887;27;20403;-72
2022/04/27 05:49:25;;;;;;;12.40;8.27;;;;;;;14.52;70.05;100254.88;5134245;27;20561;-72
2022/04/27 05:51:53;;;;;;;15.35;8.63;;;;;;;14.19;72.71;100260.94;5115797;27;20051;-72
2022/04/27 05:54:21;;;;;;;12.25;8.32;;;;;;;14.38;71.89;100253.22;5115355;28;20043;-70
2022/04/27 05:56:49;;;;;;;11.80;8.40;;;;;;;14.40;70.55;100266.53;5134003;27;20046;-68
2022/04/27 05:59:17;;;;;;;14.20;8.65;;;;;;;14.32;71.97;100265.25;5133791;27;20065;-71
2022/04/27 06:01:46;;;;;;;11.93;8.10;;;;;;;14.44;70.58;100270.66;5133667;27;20480;-72
2022/04/27 06:04:23;;;;;;;12.90;8.30;;;;;;;13.89;72.22;100272.94;5134122;27;20050;-72
2022/04/27 06:06:51;;;;;;;12.68;7.38;;;;;;;14.12;71.63;100270.41;5115596;27;20047;-72
2022/04/27 06:09:19;;;;;;;16.55;8.18;;;;;;;14.07;73.10;100272.56;5115831;28;20511;-70
2022/04/27 06:11:47;;;;;;;12.38;7.75;;;;;;;14.10;72.50;100275.91;5115567;28;20047;-70
2022/04/27 06:14:15;;;;;;;14.27;8.07;;;;;;;13.88;72.76;100281.97;5128892;28;20130;-71
2022/04/27 06:16:43;;;;;;;14.73;8.70;;;;;;;13.75;73.20;100282.03;5113801;28;20097;-71
2022/04/27 06:19:13;;;;;;;13.23;8.18;;;;;;;13.80;73.25;100276.34;5094936;28;20563;-71
2022/04/27 06:21:42;;;;;;;14.20;8.80;;;;;;;13.56;74.75;100278.09;5094800;28;20134;-70
2022/04/27 06:24:11;;;;;;;10.55;6.95;;;;;;;13.67;73.08;100280.88;5115409;28;20547;-70
2022/04/27 06:26:39;;;;;;;10.85;7.28;;;;;;;13.55;75.08;100277.25;5133619;28;20047;-71
2022/04/27 06:29:10;;;;;;;11.35;7.68;;;;;;;13.31;76.32;100282.53;5115401;28;20055;-70
2022/04/27 06:31:38;;;;;;;11.48;7.20;;;;;;;13.11;75.95;100289.25;5134104;28;20040;-70
2022/04/27 06:34:07;;;;;;;11.68;7.88;;;;;;;13.26;76.63;100286.50;5129138;28;20050;-74
2022/04/27 06:36:36;;;;;;;11.93;7.43;;;;;;;13.25;75.73;100279.44;5098587;28;20074;-74
2022/04/27 06:39:07;;;;;;;12.27;7.07;;;;;;;13.28;75.26;100285.44;5112727;28;20067;-74
2022/04/27 06:41:35;;;;;;;12.18;7.53;;;;;;;13.30;76.71;100288.00;5094758;28;20405;-73
2022/04/27 06:44:03;;;;;;;10.60;7.43;;;;;;;13.41;75.68;100290.75;5094666;28;20050;-74
2022/04/27 06:46:31;;;;;;;12.23;7.80;;;;;;;13.53;76.05;100291.72;5113007;28;20478;-73
2022/04/27 06:49:00;;;;;;;11.52;7.47;;;;;;;13.35;76.71;100285.88;5112668;28;20055;-72
2022/04/27 06:51:28;;;;;;;11.27;7.55;;;;;;;13.46;76.90;100288.63;5129571;28;20043;-72
2022/04/27 06:53:56;;;;;;;10.85;7.53;;;;;;;13.56;76.51;100289.69;5114784;28;20444;-70
2022/04/27 06:56:26;;;;;;;10.02;6.63;;;;;;;13.56;75.29;100280.78;5115461;28;20446;-70
2022/04/27 06:58:54;;;;;;;12.90;7.93;;;;;;;13.61;76.47;100298.25;5115201;28;20082;-71
2022/04/27 07:01:22;;;;;;;12.93;8.13;;;;;;;13.86;75.81;100301.81;5115039;28;20043;-71
2022/04/27 07:03:55;;;;;;;13.50;8.00;;;;;;;13.78;75.21;100309.56;5114827;28;20415;-71
2022/04/27 07:06:23;;;;;;;13.63;8.38;;;;;;;13.77;76.29;100310.53;5114936;27;20050;-71
2022/04/27 07:08:56;;;;;;;14.02;7.70;;;;;;;13.96;75.23;100310.91;5137319;27;20053;-71
2022/04/27 07:11:25;;;;;;;14.80;7.85;;;;;;;14.23;75.51;100316.94;5118943;27;20047;-71
2022/04/27 07:13:54;;;;;;;11.23;7.15;;;;;;;14.30;73.07;100320.03;5118297;27;20058;-71
2022/04/27 07:16:23;;;;;;;13.02;8.18;;;;;;;14.43;73.16;100323.50;5118260;27;20043;-71
2022/04/27 07:18:53;;;;;;;10.88;8.05;;;;;;;14.48;71.68;100320.50;5118262;27;20047;-71
2022/04/27 07:21:21;;;;;;;12.73;7.20;;;;;;;14.76;70.78;100316.56;5117779;27;20055;-71
2022/04/27 07:23:50;;;;;;;11.25;7.68;;;;;;;14.78;71.13;100320.84;5136370;27;20391;-71
2022/04/27 07:26:18;;;;;;;12.43;7.75;;;;;;;15.11;70.47;100324.59;5117809;27;20141;-70
2022/04/27 07:28:48;;;;;;;13.70;7.95;;;;;;;15.42;68.82;100328.41;5117729;27;20050;-71
2022/04/27 07:31:16;;;;;;;12.20;7.70;;;;;;;15.52;67.82;100328.53;5136465;27;20122;-71
2022/04/27 07:33:44;;;;;;;10.88;7.57;;;;;;;15.49;68.58;100339.53;5118091;27;20051;-71
2022/04/27 07:36:13;;;;;;;12.68;7.95;;;;;;;15.48;68.63;100335.13;5118049;27;20047;-71
2022/04/27 07:38:41;;;;;;;10.57;7.55;;;;;;;15.26;68.80;100350.28;5136450;27;20043;-71
2022/04/27 07:41:09;;;;;;;10.88;7.47;;;;;;;15.38;69.14;100352.00;5118019;27;20053;-71
2022/04/27 07:43:38;;;;;;;13.88;8.02;;;;;;;15.45;70.35;100339.78;5136869;27;20043;-70
2022/04/27 07:46:09;;;;;;;12.30;7.90;;;;;;;15.45;68.93;100349.69;5136177;27;20051;-70
2022/04/27 07:48:37;;;;;;;10.70;7.05;;;;;;;15.41;68.24;100346.38;5118445;27;20410;-70
2022/04/27 07:51:06;;;;;;;9.90;7.30;;;;;;;15.51;67.15;100338.44;5117664;27;20487;-71
2022/04/27 07:53:37;;;;;;;11.55;7.38;;;;;;;15.33;67.94;100346.09;5118079;27;20051;-70
2022/04/27 07:56:06;;;;;;;11.43;8.25;;;;;;;15.42;67.91;100344.53;5136314;27;20050;-71
2022/04/27 07:58:34;;;;;;;11.20;7.90;;;;;;;15.55;67.37;100344.44;5117973;27;20039;-69
2022/04/27 08:01:10;;;;;;;11.43;7.90;;;;;;;15.38;67.44;100345.75;5135572;27;20441;-72
2022/04/27 08:03:39;;;;;;;11.30;7.50;;;;;;;15.39;67.53;100353.69;5118113;27;20400;-71
2022/04/27 08:06:07;;;;;;;11.63;7.43;;;;;;;15.74;66.78;100344.72;5136197;27;20070;-70
2022/04/27 08:08:37;;;;;;;11.00;7.30;;;;;;;15.62;66.37;100356.44;5118118;27;20046;-70
2022/04/27 08:11:07;;;;;;;10.18;7.05;;;;;;;15.79;65.74;100349.72;5117486;27;20100;-71
2022/04/27 08:13:35;;;;;;;10.57;7.57;;;;;;;15.41;66.89;100351.75;5117890;27;20069;-70
2022/04/27 08:16:04;;;;;;;10.38;7.55;;;;;;;15.83;65.87;100357.44;5117471;27;20555;-71
2022/04/27 08:18:34;;;;;;;11.32;7.30;;;;;;;16.27;64.42;100353.78;5117458;27;20389;-71
2022/04/27 08:21:15;;;;;;;13.20;8.18;;;;;;;16.20;64.41;100352.56;5117613;27;20100;-71
2022/04/27 08:23:46;;;;;;;10.48;7.90;;;;;;;16.10;64.23;100356.16;5135706;27;20066;-71
2022/04/27 08:26:16;;;;;;;13.15;8.10;;;;;;;16.34;63.59;100359.53;5135628;27;20039;-71
2022/04/27 08:28:46;;;;;;;11.18;7.35;;;;;;;16.35;62.31;100363.09;5135857;27;20472;-71
2022/04/27 08:31:17;;;;;;;11.13;7.18;;;;;;;16.55;61.73;100356.91;5117016;27;20058;-71
2022/04/27 08:33:47;;;;;;;10.43;7.80;;;;;;;16.51;63.04;100356.31;5117196;27;20134;-72
2022/04/27 08:36:15;;;;;;;11.55;7.88;;;;;;;16.73;62.84;100362.63;5116535;27;20047;-71
2022/04/27 08:38:59;;;;;;;12.50;8.02;;;;;;;17.03;61.04;100357.31;5135146;27;20073;-71
2022/04/27 08:41:28;;;;;;;12.27;6.95;;;;;;;17.26;58.82;100360.72;5135514;27;20046;-71
2022/04/27 08:43:57;;;;;;;10.75;6.93;;;;;;;17.49;58.33;100357.91;5116651;27;20051;-70
2022/04/27 08:46:27;;;;;;;10.30;7.18;;;;;;;17.29;58.53;100365.03;5116306;27;20043;-71
2022/04/27 08:48:57;;;;;;;10.95;7.53;;;;;;;17.24;57.66;100360.00;5116533;27;20043;-71
2022/04/27 08:51:25;;;;;;;10.73;7.07;;;;;;;16.78;59.41;100369.31;5134713;27;20503;-71
2022/04/27 08:53:53;;;;;;;11.15;7.40;;;;;;;16.36;60.60;100362.94;5134499;27;20344;-70
2022/04/27 08:56:23;;;;;;;12.30;7.78;;;;;;;16.24;61.46;100356.75;5115678;27;20043;-71
2022/04/27 08:58:51;;;;;;;11.18;6.82;;;;;;;16.40;60.69;100359.00;5115771;27;20051;-71
2022/04/27 09:01:19;;;;;;;10.73;7.22;;;;;;;16.52;59.81;100355.31;5115665;27;20381;-71
2022/04/27 09:03:48;;;;;;;12.02;7.85;;;;;;;16.28;61.37;100357.34;5134613;27;20082;-71
2022/04/27 09:06:20;;;;;;;10.55;7.25;;;;;;;16.79;60.34;100356.69;5116231;27;20057;-71
2022/04/27 09:08:49;;;;;;;12.75;7.97;;;;;;;16.74;59.51;100351.72;5116427;27;20092;-71
2022/04/27 09:11:19;;;;;;;13.05;7.55;;;;;;;16.80;60.02;100345.81;5134673;27;20062;-72
2022/04/27 09:13:53;;;;;;;10.77;7.32;;;;;;;16.87;59.59;100356.91;5098936;27;20571;-71
2022/04/27 09:16:23;;;;;;;11.35;7.65;;;;;;;17.05;58.50;100352.66;5116390;27;20130;-71
2022/04/27 09:22:03;;;;;;;10.18;7.00;;;;;;;16.87;58.46;100362.28;5116178;27;20078;-71
2022/04/27 09:24:48;;;;;;;11.32;7.38;;;;;;;16.56;60.00;100364.84;5134888;27;20047;-71
2022/04/27 09:27:18;;;;;;;9.88;6.72;;;;;;;16.56;59.71;100359.47;5115943;27;20145;-71
2022/04/27 09:29:57;;;;;;;10.57;7.65;;;;;;;16.36;61.57;100359.41;5115669;27;20043;-71
2022/04/27 09:32:26;;;;;;;11.45;7.53;;;;;;;16.41;61.89;100357.22;5115458;27;20112;-71
2022/04/27 09:34:55;;;;;;;10.95;7.50;;;;;;;16.90;60.76;100359.38;5116021;27;20051;-71
2022/04/27 09:37:27;;;;;;;12.40;7.30;;;;;;;16.81;61.03;100357.44;5115642;27;20077;-71
2022/04/27 09:40:04;;;;;;;9.52;6.63;;;;;;;16.97;59.47;100341.66;5134449;27;20039;-71
2022/04/27 09:42:34;;;;;;;11.98;7.88;;;;;;;16.91;60.45;100361.06;5115654;27;20055;-72
2022/04/27 09:45:15;;;;;;;11.95;7.97;;;;;;;16.85;59.46;100346.25;5134493;27;20104;-71
2022/04/27 09:47:48;;;;;;;10.07;6.85;;;;;;;16.62;60.96;100357.25;5116030;27;20066;-71
2022/04/27 09:50:17;;;;;;;11.80;7.40;;;;;;;16.46;61.43;100358.50;5115352;28;20133;-72
2022/04/27 09:52:47;;;;;;;10.30;7.07;;;;;;;16.66;61.08;100356.00;5134021;27;20042;-71
2022/04/27 09:55:16;;;;;;;9.60;6.75;;;;;;;16.76;61.31;100355.13;5115517;27;20043;-71
2022/04/27 09:57:56;;;;;;;10.05;7.47;;;;;;;16.65;60.95;100352.44;5115991;27;20137;-71
2022/04/27 10:00:30;;;;;;;9.30;6.47;;;;;;;16.46;61.02;100352.28;5115493;27;20047;-71
2022/04/27 10:03:00;;;;;;;;;;;;;;;16.20;61.81;100357.09;5134560;27;20039;-71
2022/04/27 10:05:29;;;;;;;10.38;6.72;;;;;;;16.42;60.87;100351.69;5133597;27;20517;-72
2022/04/27 10:08:01;;;;;;;10.23;6.88;;;;;;;16.49;61.80;100352.88;5115399;28;20445;-71
2022/04/27 10:10:31;;;;;;;9.02;6.57;;;;;;;16.17;62.41;100357.38;5115264;28;20059;-71
2022/04/27 10:13:02;;;;;;;12.52;7.45;;;;;;;16.34;61.72;100356.00;5115633;28;20054;-71
2022/04/27 10:15:32;;;;;;;10.25;6.63;;;;;;;16.10;63.06;100354.31;5114975;28;20081;-71
2022/04/27 10:18:01;;;;;;;10.52;6.63;;;;;;;16.27;61.95;100352.94;5115514;28;20039;-71
2022/04/27 10:20:31;;;;;;;9.30;6.55;;;;;;;16.30;62.40;100347.28;5115828;28;20522;-71
2022/04/27 10:23:22;;;;;;;10.32;6.65;;;;;;;15.87;62.34;100349.97;5134724;28;20104;-71
2022/04/27 10:26:14;;;;;;;10.52;6.55;;;;;;;15.98;63.55;100360.69;5116010;28;20048;-71
2022/04/27 10:28:48;;;;;;;8.77;6.22;;;;;;;15.95;64.18;100359.13;5134202;28;20043;-70
2022/04/27 10:31:54;;;;;;;9.68;6.47;;;;;;;16.03;63.71;100353.13;5115777;28;20074;-71
2022/04/27 10:34:23;;;;;;;10.45;6.43;;;;;;;15.85;64.54;100363.53;5116018;28;20074;-70
2022/04/27 10:36:52;;;;;;;9.65;6.38;;;;;;;15.78;64.83;100361.44;5115659;28;20051;-71
2022/04/27 10:39:23;;;;;;;9.63;6.90;;;;;;;15.94;63.97;100368.16;5133212;28;20043;-71
2022/04/27 10:42:25;;;;;;;10.15;7.00;;;;;;;16.16;64.04;100363.72;5116533;27;20057;-71
2022/04/27 10:45:07;;;;;;;9.32;6.60;;;;;;;15.96;64.22;100365.34;5115967;27;20047;-71
2022/04/27 10:47:38;;;;;;;9.05;6.45;;;;;;;15.82;64.39;100363.75;5119293;27;20070;-72
2022/04/27 10:50:29;;;;;;;11.23;7.05;;;;;;;15.85;64.58;100368.06;5119431;27;20035;-71
2022/04/27 10:53:01;;;;;;;8.90;6.70;;;;;;;15.82;64.59;100362.91;5137547;27;20114;-71
2022/04/27 10:55:54;;;;;;;11.35;7.18;;;;;;;15.80;65.29;100363.03;5137630;27;20039;-71
2022/04/27 10:58:31;;;;;;;11.02;6.75;;;;;;;15.69;65.75;100369.28;5137494;27;20506;-70
2022/04/27 11:01:19;;;;;;;8.90;6.38;;;;;;;15.85;65.74;100357.31;5137663;27;20464;-71
2022/04/27 11:04:12;;;;;;;11.13;6.95;;;;;;;15.74;66.44;100364.41;5137222;27;20075;-72
2022/04/27 11:07:20;;;;;;;10.00;6.75;;;;;;;15.51;67.80;100369.84;5119288;27;20051;-71
2022/04/27 11:10:16;;;;;;;11.15;6.90;;;;;;;15.44;67.56;100370.34;5119046;27;20135;-71
2022/04/27 11:12:50;;;;;;;9.27;6.82;;;;;;;15.52;67.47;100360.78;5119347;27;20377;-71
2022/04/27 11:15:22;;;;;;;9.45;6.75;;;;;;;15.84;66.60;100360.97;5136904;27;20123;-70
2022/04/27 11:18:01;;;;;;;9.57;6.35;;;;;;;15.68;66.56;100370.25;5118816;27;20100;-70
2022/04/27 11:20:32;;;;;;;9.88;6.35;;;;;;;15.60;66.66;100358.34;5118444;27;20507;-72
2022/04/27 11:23:03;;;;;;;11.38;6.82;;;;;;;15.62;67.03;100361.81;5118938;27;20058;-72
2022/04/27 11:25:32;;;;;;;10.02;6.47;;;;;;;15.74;66.93;100371.63;5136837;27;20046;-71
2022/04/27 11:28:02;;;;;;;10.27;6.72;;;;;;;15.60;67.09;100374.50;5137123;27;20040;-71
2022/04/27 11:30:32;;;;;;;9.90;6.25;;;;;;;15.34;68.15;100363.94;5118550;27;20145;-70
2022/04/27 11:33:01;;;;;;;10.50;6.65;;;;;;;15.43;68.36;100373.13;5118345;27;20126;-70
2022/04/27 11:35:42;;;;;;;11.25;7.22;;;;;;;15.38;68.81;100378.00;5136763;27;20046;-70
2022/04/27 11:38:11;;;;;;;11.48;7.78;;;;;;;15.27;69.11;100368.09;5136490;27;20047;-71
2022/04/27 11:40:40;;;;;;;10.48;7.22;;;;;;;15.28;69.10;100377.88;5118096;27;20456;-71
2022/04/27 11:43:09;;;;;;;12.25;7.65;;;;;;;15.23;69.66;100361.25;5136808;27;20057;-71
2022/04/27 11:45:39;;;;;;;12.18;7.50;;;;;;;15.44;69.61;100370.34;5136547;27;20039;-71
2022/04/27 11:48:09;;;;;;;10.25;6.93;;;;;;;15.57;68.82;100367.53;5136752;27;20051;-70